CDT,Max TemperatureF,Mean TemperatureF,Min TemperatureF,Max Dew PointF,MeanDew PointF,Min DewpointF,Max Humidity, Mean Humidity, Min Humidity, Max Sea Level PressureIn, Mean Sea Level PressureIn, Min Sea Level PressureIn, Max VisibilityMiles, Mean VisibilityMiles, Min VisibilityMiles, Max Wind SpeedMPH, Mean Wind SpeedMPH, Max Gust SpeedMPH,PrecipitationIn, CloudCover, Events, WindDirDegrees
2012-9-1,87,82,78,77,76,72,84,79,62,30.10,30.03,29.99,10,10,3,17,12,33,0.11,2,Rain-Thunderstorm,166
2012-9-2,89,84,80,77,75,73,84,74,62,30.07,30.02,29.96,10,10,7,16,13,22,0.00,2,,169
2012-9-3,87,84,80,77,76,73,84,76,70,30.03,29.97,29.91,10,10,5,20,14,26,0.00,2,,167
2012-9-4,87,84,80,77,75,73,84,74,66,29.99,29.94,29.88,10,10,10,17,13,23,0.00,1,,170
2012-9-5,87,84,80,77,75,73,89,76,62,29.93,29.89,29.84,10,10,10,17,12,22,0.00,2,,172
2012-9-6,87,82,78,77,76,73,89,79,66,29.98,29.91,29.88,10,10,10,15,11,21,0.00,1,,169
2012-9-7,87,82,78,77,76,75,89,80,66,29.94,29.89,29.82,10,10,10,15,10,18,0.00,2,,177
2012-9-8,87,82,78,77,75,64,89,76,54,30.00,29.92,29.86,10,10,10,17,9,22,0.00,3,Thunderstorm,192
2012-9-9,86,80,75,68,63,59,78,57,40,30.10,30.04,30.00,10,10,10,18,13,25,0.00,0,,60
2012-9-10,86,80,73,70,64,57,88,59,40,30.11,30.05,30.00,10,10,10,15,8,21,0.00,0,,84
2012-9-11,86,80,75,75,70,64,84,69,58,30.06,30.01,29.97,10,10,10,18,9,23,0.00,3,,92
2012-9-12,87,84,80,77,76,73,89,79,62,30.05,29.99,29.94,10,10,10,18,9,24,0.00,2,Thunderstorm,164
2012-9-13,87,84,80,77,74,70,89,74,58,30.09,30.03,29.96,10,10,10,21,12,29,0.00,1,Thunderstorm,142
2012-9-14,80,76,71,73,71,70,94,83,70,30.15,30.10,30.04,10,10,5,20,9,25,0.25,3,Rain-Thunderstorm,39
2012-9-15,82,76,71,72,70,68,94,82,65,30.16,30.10,30.05,10,10,10,18,13,24,0.00,5,Thunderstorm,24
2012-9-16,80,76,71,73,70,68,100,84,69,30.06,29.99,29.93,10,9,2,15,7,17,1.08,6,Rain-Thunderstorm,13
2012-9-17,80,74,69,70,68,66,100,80,61,29.94,29.87,29.80,10,10,7,10,6,,0.00,4,,24
2012-9-18,87,79,71,72,69,63,100,71,43,30.02,29.95,29.88,10,10,5,15,5,20,0.00,0,,55
2012-9-19,84,78,71,72,70,68,94,75,62,30.10,30.05,30.02,10,10,10,12,7,16,0.00,0,,53
2012-9-20,84,80,75,70,63,59,74,58,45,30.08,30.03,29.99,10,10,10,12,8,16,0.00,0,,100
2012-9-21,82,76,69,70,61,57,78,57,45,30.01,29.98,29.94,10,10,10,9,6,,0.00,0,,82
2012-9-22,86,82,78,73,71,68,79,70,62,30.09,30.03,29.98,10,10,10,14,8,18,0.00,1,,101
2012-9-23,86,82,78,73,72,72,79,72,62,30.16,30.11,30.08,10,10,10,14,7,18,0.00,1,,114
2012-9-24,86,82,78,72,71,70,78,69,58,30.16,30.09,30.03,10,10,10,14,8,20,0.00,2,,131
2012-9-25,86,83,80,73,71,70,74,69,58,30.06,30.00,29.95,10,10,10,17,14,24,0.00,2,,153
2012-9-26,87,82,78,73,71,68,79,68,58,30.02,29.98,29.94,10,10,10,17,13,24,0.00,2,,137
2012-9-27,86,82,78,75,74,72,84,76,66,30.05,30.00,29.95,10,10,5,13,9,18,0.00,2,Rain,130
2012-9-28,84,80,77,77,73,72,89,79,70,30.01,29.95,29.89,10,10,4,14,8,18,0.04,3,Rain,141
2012-9-29,86,80,73,79,75,70,100,86,74,29.90,29.81,29.69,10,7,2,20,11,28,1.38,6,Rain-Thunderstorm,178
2012-9-30,80,76,71,70,65,63,88,71,58,29.86,29.79,29.74,10,10,10,24,14,32,0.00,6,,321